sensor_id;sensor_type;location;lat;lon;timestamp;pressure;altitude;pressure_sealevel;temperature;humidity
14293;BME280;62290;59.420;17.842;2022-08-21T00:00:29;100921.31;;;27.73;42.29
14293;BME280;62290;59.420;17.842;2022-08-21T00:03:02;100931.97;;;27.75;42.32
14293;BME280;62290;59.420;17.842;2022-08-21T00:05:31;100925.00;;;27.72;42.54
14293;BME280;62290;59.420;17.842;2022-08-21T00:08:00;100932.28;;;27.72;42.57
14293;BME280;62290;59.420;17.842;2022-08-21T00:10:28;100919.91;;;27.69;42.40
14293;BME280;62290;59.420;17.842;2022-08-21T00:12:56;100915.50;;;27.68;43.03
14293;BME280;62290;59.420;17.842;2022-08-21T00:15:27;100912.25;;;27.65;42.84
14293;BME280;62290;59.420;17.842;2022-08-21T00:17:56;100919.50;;;27.64;42.83
14293;BME280;62290;59.420;17.842;2022-08-21T00:20:27;100913.28;;;27.64;42.94
14293;BME280;62290;59.420;17.842;2022-08-21T00:22:55;100921.69;;;27.61;42.96
14293;BME280;62290;59.420;17.842;2022-08-21T00:25:23;100921.69;;;27.61;42.98
14293;BME280;62290;59.420;17.842;2022-08-21T00:27:52;100921.84;;;27.59;43.10
14293;BME280;62290;59.420;17.842;2022-08-21T00:30:22;100928.28;;;27.58;42.88
14293;BME280;62290;59.420;17.842;2022-08-21T00:32:51;100928.41;;;27.56;42.64
14293;BME280;62290;59.420;17.842;2022-08-21T00:35:23;100932.84;;;27.58;42.69
14293;BME280;62290;59.420;17.842;2022-08-21T00:37:53;100929.44;;;27.55;42.91
14293;BME280;62290;59.420;17.842;2022-08-21T00:40:24;100921.25;;;27.47;42.78
14293;BME280;62290;59.420;17.842;2022-08-21T00:42:52;100928.88;;;27.52;43.08
14293;BME280;62290;59.420;17.842;2022-08-21T00:45:21;100933.44;;;27.51;42.73
14293;BME280;62290;59.420;17.842;2022-08-21T00:47:50;100928.03;;;27.51;42.80
14293;BME280;62290;59.420;17.842;2022-08-21T00:50:19;100936.44;;;27.48;42.81
14293;BME280;62290;59.420;17.842;2022-08-21T00:52:49;100925.63;;;27.48;42.98
14293;BME280;62290;59.420;17.842;2022-08-21T00:55:20;100924.78;;;27.48;42.75
14293;BME280;62290;59.420;17.842;2022-08-21T00:57:52;100916.81;;;27.46;42.92
14293;BME280;62290;59.420;17.842;2022-08-21T01:00:24;100921.38;;;27.46;43.26
14293;BME280;62290;59.420;17.842;2022-08-21T01:02:53;100912.41;;;27.45;43.10
14293;BME280;62290;59.420;17.842;2022-08-21T01:05:21;100914.41;;;27.43;43.15
14293;BME280;62290;59.420;17.842;2022-08-21T01:07:49;100920.69;;;27.44;43.28
14293;BME280;62290;59.420;17.842;2022-08-21T01:10:20;100919.81;;;27.43;43.47
14293;BME280;62290;59.420;17.842;2022-08-21T01:12:50;100906.19;;;27.35;43.26
14293;BME280;62290;59.420;17.842;2022-08-21T01:15:19;100908.16;;;27.43;43.41
14293;BME280;62290;59.420;17.842;2022-08-21T01:17:49;100904.75;;;27.41;43.46
14293;BME280;62290;59.420;17.842;2022-08-21T01:20:18;100904.75;;;27.41;43.54
14293;BME280;62290;59.420;17.842;2022-08-21T01:22:47;100902.78;;;27.33;43.43
14293;BME280;62290;59.420;17.842;2022-08-21T01:25:17;100911.19;;;27.40;43.40
14293;BME280;62290;59.420;17.842;2022-08-21T01:27:46;100901.50;;;27.37;43.47
14293;BME280;62290;59.420;17.842;2022-08-21T01:30:16;100899.59;;;27.38;43.36
14293;BME280;62290;59.420;17.842;2022-08-21T01:32:46;100888.09;;;27.36;43.26
14293;BME280;62290;59.420;17.842;2022-08-21T01:35:17;100888.25;;;27.34;43.67
14293;BME280;62290;59.420;17.842;2022-08-21T01:37:48;100876.56;;;27.34;43.68
14293;BME280;62290;59.420;17.842;2022-08-21T01:40:16;100877.88;;;27.30;43.55
14293;BME280;62290;59.420;17.842;2022-08-21T01:42:46;100892.25;;;27.30;43.29
14293;BME280;62290;59.420;17.842;2022-08-21T01:45:15;100894.44;;;27.27;43.37
14293;BME280;62290;59.420;17.842;2022-08-21T01:47:43;100885.94;;;27.22;43.49
14293;BME280;62290;59.420;17.842;2022-08-21T01:50:14;100890.88;;;27.26;43.46
14293;BME280;62290;59.420;17.842;2022-08-21T01:52:43;100896.41;;;27.25;43.54
14293;BME280;62290;59.420;17.842;2022-08-21T01:55:14;100894.75;;;27.24;43.36
14293;BME280;62290;59.420;17.842;2022-08-21T01:57:42;100892.09;;;27.14;43.50
14293;BME280;62290;59.420;17.842;2022-08-21T02:00:13;100904.03;;;27.21;43.33
14293;BME280;62290;59.420;17.842;2022-08-21T02:02:42;100910.41;;;27.20;43.68
14293;BME280;62290;59.420;17.842;2022-08-21T02:05:11;100910.59;;;27.19;43.79
14293;BME280;62290;59.420;17.842;2022-08-21T02:07:42;100914.16;;;27.19;43.69
14293;BME280;62290;59.420;17.842;2022-08-21T02:10:14;100904.31;;;27.18;43.59
14293;BME280;62290;59.420;17.842;2022-08-21T02:12:42;100901.63;;;27.18;43.38
14293;BME280;62290;59.420;17.842;2022-08-21T02:15:10;100900.75;;;27.18;43.84
14293;BME280;62290;59.420;17.842;2022-08-21T02:17:41;100898.22;;;27.16;43.44
14293;BME280;62290;59.420;17.842;2022-08-21T02:20:10;100903.63;;;27.16;43.42
14293;BME280;62290;59.420;17.842;2022-08-21T02:22:38;100899.03;;;27.17;43.37
14293;BME280;62290;59.420;17.842;2022-08-21T02:25:07;100901.91;;;27.15;43.61
14293;BME280;62290;59.420;17.842;2022-08-21T02:27:39;100894.97;;;27.13;43.80
14293;BME280;62290;59.420;17.842;2022-08-21T02:30:11;100906.34;;;27.16;44.07
14293;BME280;62290;59.420;17.842;2022-08-21T02:32:39;100908.31;;;27.14;44.02
14293;BME280;62290;59.420;17.842;2022-08-21T02:35:09;100867.72;;;26.96;43.92
14293;BME280;62290;59.420;17.842;2022-08-21T02:37:47;100903.63;;;27.16;43.65
14293;BME280;62290;59.420;17.842;2022-08-21T02:40:17;100895.81;;;27.13;43.83
14293;BME280;62290;59.420;17.842;2022-08-21T02:42:47;100893.97;;;27.14;44.23
14293;BME280;62290;59.420;17.842;2022-08-21T02:45:16;100893.25;;;27.12;43.72
14293;BME280;62290;59.420;17.842;2022-08-21T02:47:47;100893.09;;;27.13;44.06
14293;BME280;62290;59.420;17.842;2022-08-21T02:50:20;100892.25;;;27.13;44.13
14293;BME280;62290;59.420;17.842;2022-08-21T02:52:48;100891.56;;;27.11;44.10
14293;BME280;62290;59.420;17.842;2022-08-21T02:55:22;100895.25;;;27.10;44.18
14293;BME280;62290;59.420;17.842;2022-08-21T02:57:52;100896.13;;;27.10;44.12
14293;BME280;62290;59.420;17.842;2022-08-21T03:00:22;100866.34;;;26.92;44.04
14293;BME280;62290;59.420;17.842;2022-08-21T03:02:51;100899.13;;;27.07;44.30
14293;BME280;62290;59.420;17.842;2022-08-21T03:05:20;100893.88;;;27.06;44.12
14293;BME280;62290;59.420;17.842;2022-08-21T03:07:48;100888.59;;;27.04;44.36
14293;BME280;62290;59.420;17.842;2022-08-21T03:10:19;100888.59;;;27.04;44.45
14293;BME280;62290;59.420;17.842;2022-08-21T03:12:48;100890.47;;;27.04;44.38
14293;BME280;62290;59.420;17.842;2022-08-21T03:15:20;100893.47;;;27.01;44.47
14293;BME280;62290;59.420;17.842;2022-08-21T03:17:48;100886.66;;;26.96;44.43
14293;BME280;62290;59.420;17.842;2022-08-21T03:20:19;100874.50;;;26.83;44.54
14293;BME280;62290;59.420;17.842;2022-08-21T03:22:48;100894.75;;;26.96;44.57
14293;BME280;62290;59.420;17.842;2022-08-21T03:25:19;100891.06;;;26.98;44.50
14293;BME280;62290;59.420;17.842;2022-08-21T03:28:10;100888.66;;;26.94;44.60
14293;BME280;62290;59.420;17.842;2022-08-21T03:30:42;100889.66;;;26.93;44.81
14293;BME280;62290;59.420;17.842;2022-08-21T03:33:11;100895.06;;;26.93;44.83
14293;BME280;62290;59.420;17.842;2022-08-21T03:35:42;100897.94;;;26.92;44.85
14293;BME280;62290;59.420;17.842;2022-08-21T03:38:10;100907.75;;;26.93;44.69
14293;BME280;62290;59.420;17.842;2022-08-21T03:40:40;100901.63;;;26.91;44.91
14293;BME280;62290;59.420;17.842;2022-08-21T03:43:08;100898.91;;;26.91;44.59
14293;BME280;62290;59.420;17.842;2022-08-21T03:45:37;100900.63;;;26.92;44.96
14293;BME280;62290;59.420;17.842;2022-08-21T03:48:08;100906.03;;;26.92;44.67
14293;BME280;62290;59.420;17.842;2022-08-21T03:50:41;100895.22;;;26.92;44.96
14293;BME280;62290;59.420;17.842;2022-08-21T03:53:11;100897.06;;;26.91;44.72
14293;BME280;62290;59.420;17.842;2022-08-21T03:55:44;100893.69;;;26.89;44.91
14293;BME280;62290;59.420;17.842;2022-08-21T03:58:13;100899.94;;;26.90;45.10
14293;BME280;62290;59.420;17.842;2022-08-21T04:00:43;100899.94;;;26.90;44.81
14293;BME280;62290;59.420;17.842;2022-08-21T04:03:13;100905.34;;;26.90;44.79
14293;BME280;62290;59.420;17.842;2022-08-21T04:05:41;100902.78;;;26.88;45.24
14293;BME280;62290;59.420;17.842;2022-08-21T04:08:09;100906.34;;;26.89;44.95
14293;BME280;62290;59.420;17.842;2022-08-21T04:10:39;100909.91;;;26.89;45.21
14293;BME280;62290;59.420;17.842;2022-08-21T04:13:08;100906.22;;;26.90;45.17
14293;BME280;62290;59.420;17.842;2022-08-21T04:15:36;100904.50;;;26.89;44.90
14293;BME280;62290;59.420;17.842;2022-08-21T04:18:04;100899.94;;;26.90;45.12
14293;BME280;62290;59.420;17.842;2022-08-21T04:20:34;100901.78;;;26.89;45.30
14293;BME280;62290;59.420;17.842;2022-08-21T04:23:03;100906.34;;;26.89;45.33
14293;BME280;62290;59.420;17.842;2022-08-21T04:25:31;100910.91;;;26.88;44.98
14293;BME280;62290;59.420;17.842;2022-08-21T04:27:59;100910.06;;;26.88;44.89
14293;BME280;62290;59.420;17.842;2022-08-21T04:30:29;100900.84;;;26.81;45.02
14293;BME280;62290;59.420;17.842;2022-08-21T04:32:58;100915.47;;;26.88;45.37
14293;BME280;62290;59.420;17.842;2022-08-21T04:35:27;100911.06;;;26.87;45.44
14293;BME280;62290;59.420;17.842;2022-08-21T04:37:57;100918.31;;;26.86;45.21
14293;BME280;62290;59.420;17.842;2022-08-21T04:40:27;100913.06;;;26.85;45.25
14293;BME280;62290;59.420;17.842;2022-08-21T04:42:58;100924.59;;;26.87;45.08
14293;BME280;62290;59.420;17.842;2022-08-21T04:45:30;100914.91;;;26.84;45.00
14293;BME280;62290;59.420;17.842;2022-08-21T04:48:00;100907.78;;;26.83;45.46
14293;BME280;62290;59.420;17.842;2022-08-21T04:50:33;100909.63;;;26.83;45.03
14293;BME280;62290;59.420;17.842;2022-08-21T04:53:09;100914.34;;;26.81;45.07
14293;BME280;62290;59.420;17.842;2022-08-21T04:55:39;100904.56;;;26.80;45.60
14293;BME280;62290;59.420;17.842;2022-08-21T04:58:08;100906.25;;;26.81;45.62
14293;BME280;62290;59.420;17.842;2022-08-21T05:00:39;100903.00;;;26.77;45.46
14293;BME280;62290;59.420;17.842;2022-08-21T05:03:09;100893.00;;;26.78;45.70
14293;BME280;62290;59.420;17.842;2022-08-21T05:05:38;100888.63;;;26.77;45.78
14293;BME280;62290;59.420;17.842;2022-08-21T05:08:12;100874.28;;;26.67;45.56
14293;BME280;62290;59.420;17.842;2022-08-21T05:10:42;100891.44;;;26.75;45.72
14293;BME280;62290;59.420;17.842;2022-08-21T05:13:11;100886.94;;;26.66;45.69
14293;BME280;62290;59.420;17.842;2022-08-21T05:15:40;100910.53;;;26.74;45.52
14293;BME280;62290;59.420;17.842;2022-08-21T05:18:08;100894.03;;;26.67;45.92
14293;BME280;62290;59.420;17.842;2022-08-21T05:20:36;100910.69;;;26.72;45.94
14293;BME280;62290;59.420;17.842;2022-08-21T05:23:09;100902.41;;;26.74;45.73
14293;BME280;62290;59.420;17.842;2022-08-21T05:25:38;100892.75;;;26.71;45.55
14293;BME280;62290;59.420;17.842;2022-08-21T05:28:07;100901.72;;;26.72;46.04
14293;BME280;62290;59.420;17.842;2022-08-21T05:30:36;100906.09;;;26.73;45.81
14293;BME280;62290;59.420;17.842;2022-08-21T05:33:05;100904.25;;;26.73;45.54
14293;BME280;62290;59.420;17.842;2022-08-21T05:35:34;100894.47;;;26.72;45.53
14293;BME280;62290;59.420;17.842;2022-08-21T05:38:03;100889.06;;;26.72;45.87
14293;BME280;62290;59.420;17.842;2022-08-21T05:40:43;100876.13;;;26.66;45.90
14293;BME280;62290;59.420;17.842;2022-08-21T05:43:11;100892.59;;;26.73;46.05
14293;BME280;62290;59.420;17.842;2022-08-21T05:45:39;100896.16;;;26.73;45.99
14293;BME280;62290;59.420;17.842;2022-08-21T05:48:13;100889.75;;;26.74;45.82
14293;BME280;62290;59.420;17.842;2022-08-21T05:50:43;100888.03;;;26.73;46.18
14293;BME280;62290;59.420;17.842;2022-08-21T05:53:11;100879.81;;;26.65;45.62
14293;BME280;62290;59.420;17.842;2022-08-21T05:55:40;100893.44;;;26.73;46.20
14293;BME280;62290;59.420;17.842;2022-08-21T05:58:14;100886.19;;;26.74;46.07
14293;BME280;62290;59.420;17.842;2022-08-21T06:00:43;100884.34;;;26.74;45.85
14293;BME280;62290;59.420;17.842;2022-08-21T06:03:15;100887.19;;;26.73;46.27
14293;BME280;62290;59.420;17.842;2022-08-21T06:05:44;100882.63;;;26.73;45.99
14293;BME280;62290;59.420;17.842;2022-08-21T06:08:13;100887.19;;;26.73;46.11
14293;BME280;62290;59.420;17.842;2022-08-21T06:10:41;100879.94;;;26.73;45.80
14293;BME280;62290;59.420;17.842;2022-08-21T06:13:10;100876.38;;;26.73;45.93
14293;BME280;62290;59.420;17.842;2022-08-21T06:15:39;100877.22;;;26.73;45.86
14293;BME280;62290;59.420;17.842;2022-08-21T06:18:08;100878.38;;;26.71;45.99
14293;BME280;62290;59.420;17.842;2022-08-21T06:20:36;100878.38;;;26.71;46.25
14293;BME280;62290;59.420;17.842;2022-08-21T06:23:05;100877.69;;;26.69;46.19
14293;BME280;62290;59.420;17.842;2022-08-21T06:25:33;100873.25;;;26.68;46.34
14293;BME280;62290;59.420;17.842;2022-08-21T06:28:02;100869.56;;;26.69;46.47
14293;BME280;62290;59.420;17.842;2022-08-21T06:30:31;100842.34;;;26.53;46.03
14293;BME280;62290;59.420;17.842;2022-08-21T06:33:00;100865.06;;;26.60;46.12
14293;BME280;62290;59.420;17.842;2022-08-21T06:35:29;100869.88;;;26.66;46.61
14293;BME280;62290;59.420;17.842;2022-08-21T06:37:57;100871.59;;;26.67;46.46
14293;BME280;62290;59.420;17.842;2022-08-21T06:40:26;100872.41;;;26.67;46.53
14293;BME280;62290;59.420;17.842;2022-08-21T06:42:56;100873.25;;;26.68;46.38
14293;BME280;62290;59.420;17.842;2022-08-21T06:45:27;100872.56;;;26.66;46.06
14293;BME280;62290;59.420;17.842;2022-08-21T06:47:58;100869.88;;;26.66;46.46
14293;BME280;62290;59.420;17.842;2022-08-21T06:50:28;100871.59;;;26.67;46.51
14293;BME280;62290;59.420;17.842;2022-08-21T06:53:02;100859.75;;;26.68;46.25
14293;BME280;62290;59.420;17.842;2022-08-21T06:55:30;100860.78;;;26.67;46.38
14293;BME280;62290;59.420;17.842;2022-08-21T06:57:58;100862.44;;;26.68;46.32
14293;BME280;62290;59.420;17.842;2022-08-21T07:00:27;100860.78;;;26.67;46.70
14293;BME280;62290;59.420;17.842;2022-08-21T07:02:55;100868.72;;;26.68;46.70
14293;BME280;62290;59.420;17.842;2022-08-21T07:05:25;100865.84;;;26.70;46.28
14293;BME280;62290;59.420;17.842;2022-08-21T07:07:54;100853.34;;;26.69;46.73
14293;BME280;62290;59.420;17.842;2022-08-21T07:10:23;100860.44;;;26.70;46.53
14293;BME280;62290;59.420;17.842;2022-08-21T07:12:52;100838.00;;;26.60;46.48
14293;BME280;62290;59.420;17.842;2022-08-21T07:15:28;100857.59;;;26.71;46.19
14293;BME280;62290;59.420;17.842;2022-08-21T07:17:57;100855.75;;;26.72;46.45
14293;BME280;62290;59.420;17.842;2022-08-21T07:20:25;100862.84;;;26.73;46.27
14293;BME280;62290;59.420;17.842;2022-08-21T07:22:56;100860.88;;;26.75;46.12
14293;BME280;62290;59.420;17.842;2022-08-21T07:25:27;100855.75;;;26.72;46.51
14293;BME280;62290;59.420;17.842;2022-08-21T07:27:55;100862.72;;;26.74;46.74
14293;BME280;62290;59.420;17.842;2022-08-21T07:30:23;100856.28;;;26.75;46.42
14293;BME280;62290;59.420;17.842;2022-08-21T07:32:51;100857.03;;;26.77;46.52
14293;BME280;62290;59.420;17.842;2022-08-21T07:35:20;100861.59;;;26.77;46.53
14293;BME280;62290;59.420;17.842;2022-08-21T07:37:49;100856.19;;;26.77;46.26
14293;BME280;62290;59.420;17.842;2022-08-21T07:40:19;100845.38;;;26.77;46.20
14293;BME280;62290;59.420;17.842;2022-08-21T07:42:48;100852.59;;;26.76;46.21
14293;BME280;62290;59.420;17.842;2022-08-21T07:45:19;100858.88;;;26.77;46.50
14293;BME280;62290;59.420;17.842;2022-08-21T07:47:48;100859.75;;;26.77;46.61
14293;BME280;62290;59.420;17.842;2022-08-21T07:50:22;100837.44;;;26.66;46.46
14293;BME280;62290;59.420;17.842;2022-08-21T07:52:50;100858.16;;;26.75;46.67
14293;BME280;62290;59.420;17.842;2022-08-21T07:55:21;100858.00;;;26.76;46.72
14293;BME280;62290;59.420;17.842;2022-08-21T07:57:50;100850.06;;;26.75;46.65
14293;BME280;62290;59.420;17.842;2022-08-21T08:00:22;100857.88;;;26.78;46.50
14293;BME280;62290;59.420;17.842;2022-08-21T08:02:51;100858.88;;;26.77;46.34
14293;BME280;62290;59.420;17.842;2022-08-21T08:05:23;100854.34;;;26.77;46.30
14293;BME280;62290;59.420;17.842;2022-08-21T08:07:51;100845.25;;;26.69;46.37
14293;BME280;62290;59.420;17.842;2022-08-21T08:10:22;100853.31;;;26.78;46.30
14293;BME280;62290;59.420;17.842;2022-08-21T08:12:51;100855.16;;;26.78;46.19
14293;BME280;62290;59.420;17.842;2022-08-21T08:15:24;100854.19;;;26.79;46.53
14293;BME280;62290;59.420;17.842;2022-08-21T08:17:53;100853.31;;;26.78;46.41
14293;BME280;62290;59.420;17.842;2022-08-21T08:20:23;100851.63;;;26.77;46.30
14293;BME280;62290;59.420;17.842;2022-08-21T08:22:52;100847.91;;;26.78;46.47
14293;BME280;62290;59.420;17.842;2022-08-21T08:25:26;100838.50;;;26.73;46.41
14293;BME280;62290;59.420;17.842;2022-08-21T08:28:02;100850.63;;;26.78;46.43
14293;BME280;62290;59.420;17.842;2022-08-21T08:30:42;100851.63;;;26.77;46.13
14293;BME280;62290;59.420;17.842;2022-08-21T08:33:10;100852.47;;;26.78;46.03
14293;BME280;62290;59.420;17.842;2022-08-21T08:35:38;100838.50;;;26.73;46.09
14293;BME280;62290;59.420;17.842;2022-08-21T08:38:08;100853.31;;;26.78;46.36
14293;BME280;62290;59.420;17.842;2022-08-21T08:40:39;100847.78;;;26.80;45.93
14293;BME280;62290;59.420;17.842;2022-08-21T08:43:11;100847.06;;;26.78;46.07
14293;BME280;62290;59.420;17.842;2022-08-21T08:45:43;100857.72;;;26.79;46.04
14293;BME280;62290;59.420;17.842;2022-08-21T08:48:19;100858.59;;;26.80;46.04
14293;BME280;62290;59.420;17.842;2022-08-21T08:50:56;100856.59;;;26.82;46.19
14293;BME280;62290;59.420;17.842;2022-08-21T08:53:31;100860.84;;;26.84;46.21
14293;BME280;62290;59.420;17.842;2022-08-21T08:56:01;100865.22;;;26.85;46.16
14293;BME280;62290;59.420;17.842;2022-08-21T08:58:37;100862.38;;;26.87;45.98
14293;BME280;62290;59.420;17.842;2022-08-21T09:01:12;100859.69;;;26.87;45.65
14293;BME280;62290;59.420;17.842;2022-08-21T09:03:42;100862.50;;;26.85;46.03
14293;BME280;62290;59.420;17.842;2022-08-21T09:06:23;100859.50;;;26.88;45.65
14293;BME280;62290;59.420;17.842;2022-08-21T09:08:59;100841.66;;;26.78;45.49
14293;BME280;62290;59.420;17.842;2022-08-21T09:11:35;100857.66;;;26.89;45.56
14293;BME280;62290;59.420;17.842;2022-08-21T09:14:14;100862.09;;;26.90;45.85
14293;BME280;62290;59.420;17.842;2022-08-21T09:16:47;100856.69;;;26.90;45.55
14293;BME280;62290;59.420;17.842;2022-08-21T09:19:32;100859.09;;;26.93;45.49
14293;BME280;62290;59.420;17.842;2022-08-21T09:22:08;100860.94;;;26.92;45.62
14293;BME280;62290;59.420;17.842;2022-08-21T09:24:49;100861.78;;;26.93;45.02
14293;BME280;62290;59.420;17.842;2022-08-21T09:27:23;100865.66;;;26.90;45.04
14293;BME280;62290;59.420;17.842;2022-08-21T09:29:53;100860.25;;;26.90;44.87
14293;BME280;62290;59.420;17.842;2022-08-21T09:32:26;100865.47;;;26.92;44.86
14293;BME280;62290;59.420;17.842;2022-08-21T09:35:08;100871.06;;;26.90;44.86
14293;BME280;62290;59.420;17.842;2022-08-21T09:37:47;100866.47;;;26.91;45.20
14293;BME280;62290;59.420;17.842;2022-08-21T09:40:23;100871.06;;;26.90;45.30
14293;BME280;62290;59.420;17.842;2022-08-21T09:42:57;100860.38;;;26.89;45.07
14293;BME280;62290;59.420;17.842;2022-08-21T09:45:26;100863.94;;;26.89;44.87
14293;BME280;62290;59.420;17.842;2022-08-21T09:48:11;100862.09;;;26.90;44.74
14293;BME280;62290;59.420;17.842;2022-08-21T09:50:40;100863.94;;;26.89;44.54
14293;BME280;62290;59.420;17.842;2022-08-21T09:53:16;100853.81;;;26.91;44.67
14293;BME280;62290;59.420;17.842;2022-08-21T09:55:52;100856.38;;;26.93;44.65
14293;BME280;62290;59.420;17.842;2022-08-21T09:58:41;100862.78;;;26.92;44.64
14293;BME280;62290;59.420;17.842;2022-08-21T10:01:14;100861.78;;;26.93;44.08
14293;BME280;62290;59.420;17.842;2022-08-21T10:03:43;100866.34;;;26.92;44.07
14293;BME280;62290;59.420;17.842;2022-08-21T10:06:22;100865.19;;;26.95;44.20
14293;BME280;62290;59.420;17.842;2022-08-21T10:08:51;100859.78;;;26.95;44.03
14293;BME280;62290;59.420;17.842;2022-08-21T10:11:26;100872.13;;;26.98;44.10
14293;BME280;62290;59.420;17.842;2022-08-21T10:14:03;100870.28;;;26.98;44.18
14293;BME280;62290;59.420;17.842;2022-08-21T10:16:42;100864.88;;;26.98;43.93
14293;BME280;62290;59.420;17.842;2022-08-21T10:19:17;100863.84;;;26.99;43.98
14293;BME280;62290;59.420;17.842;2022-08-21T10:22:02;100866.44;;;27.01;43.78
14293;BME280;62290;59.420;17.842;2022-08-21T10:24:40;100870.81;;;27.02;43.88
14293;BME280;62290;59.420;17.842;2022-08-21T10:27:18;100858.63;;;26.98;43.91
14293;BME280;62290;59.420;17.842;2022-08-21T10:29:54;100865.41;;;27.02;43.65
14293;BME280;62290;59.420;17.842;2022-08-21T10:32:41;100864.25;;;27.04;43.62
14293;BME280;62290;59.420;17.842;2022-08-21T10:35:14;100864.25;;;27.04;43.72
14293;BME280;62290;59.420;17.842;2022-08-21T10:37:56;100847.25;;;26.94;43.69
14293;BME280;62290;59.420;17.842;2022-08-21T10:40:31;100856.13;;;27.04;43.15
14293;BME280;62290;59.420;17.842;2022-08-21T10:43:16;100855.16;;;27.05;43.11
14293;BME280;62290;59.420;17.842;2022-08-21T10:45:59;100857.84;;;27.05;43.47
14293;BME280;62290;59.420;17.842;2022-08-21T10:48:35;100860.38;;;27.07;42.97
14293;BME280;62290;59.420;17.842;2022-08-21T10:51:07;100856.84;;;27.06;43.06
14293;BME280;62290;59.420;17.842;2022-08-21T10:53:47;100859.41;;;27.08;42.74
14293;BME280;62290;59.420;17.842;2022-08-21T10:56:21;100859.56;;;27.06;42.99
14293;BME280;62290;59.420;17.842;2022-08-21T10:59:00;100857.53;;;27.08;42.82
14293;BME280;62290;59.420;17.842;2022-08-21T11:01:33;100865.78;;;27.07;43.33
14293;BME280;62290;59.420;17.842;2022-08-21T11:04:12;100863.81;;;27.09;43.17
14293;BME280;62290;59.420;17.842;2022-08-21T11:06:46;100864.81;;;27.08;43.43
14293;BME280;62290;59.420;17.842;2022-08-21T11:09:18;100861.13;;;27.09;43.14
14293;BME280;62290;59.420;17.842;2022-08-21T11:11:52;100864.34;;;27.12;43.05
14293;BME280;62290;59.420;17.842;2022-08-21T11:14:41;100856.84;;;27.06;42.98
14293;BME280;62290;59.420;17.842;2022-08-21T11:17:22;100861.81;;;27.11;43.22
14293;BME280;62290;59.420;17.842;2022-08-21T11:19:53;100864.50;;;27.11;42.60
14293;BME280;62290;59.420;17.842;2022-08-21T11:22:35;100859.09;;;27.11;42.79
14293;BME280;62290;59.420;17.842;2022-08-21T11:25:09;100857.53;;;27.08;42.61
14293;BME280;62290;59.420;17.842;2022-08-21T11:27:42;100851.28;;;27.08;42.65
14293;BME280;62290;59.420;17.842;2022-08-21T11:30:12;100858.53;;;27.07;42.48
14293;BME280;62290;59.420;17.842;2022-08-21T11:33:12;100850.59;;;27.06;42.72
14293;BME280;62290;59.420;17.842;2022-08-21T11:35:52;100842.00;;;26.92;42.86
14293;BME280;62290;59.420;17.842;2022-08-21T11:38:34;100858.00;;;27.04;42.50
14293;BME280;62290;59.420;17.842;2022-08-21T11:41:20;100857.16;;;27.03;43.29
14293;BME280;62290;59.420;17.842;2022-08-21T11:43:55;100856.44;;;27.01;43.07
14293;BME280;62290;59.420;17.842;2022-08-21T11:46:29;100865.56;;;27.00;42.86
14293;BME280;62290;59.420;17.842;2022-08-21T11:49:14;100869.28;;;26.99;42.77
14293;BME280;62290;59.420;17.842;2022-08-21T11:51:48;100873.13;;;26.96;42.60
14293;BME280;62290;59.420;17.842;2022-08-21T11:54:25;100870.44;;;26.96;42.35
14293;BME280;62290;59.420;17.842;2022-08-21T11:56:57;100869.72;;;26.94;42.43
14293;BME280;62290;59.420;17.842;2022-08-21T11:59:36;100861.06;;;26.91;42.27
14293;BME280;62290;59.420;17.842;2022-08-21T12:02:09;100864.16;;;26.96;42.09
14293;BME280;62290;59.420;17.842;2022-08-21T12:04:46;100871.13;;;26.98;41.36
14293;BME280;62290;59.420;17.842;2022-08-21T12:07:17;100877.38;;;26.99;41.58
14293;BME280;62290;59.420;17.842;2022-08-21T12:09:53;100873.38;;;27.03;40.99
14293;BME280;62290;59.420;17.842;2022-08-21T12:12:25;100877.94;;;27.03;40.84
14293;BME280;62290;59.420;17.842;2022-08-21T12:15:14;100870.53;;;27.05;41.16
14293;BME280;62290;59.420;17.842;2022-08-21T12:17:53;100880.34;;;27.06;41.33
14293;BME280;62290;59.420;17.842;2022-08-21T12:20:38;100873.22;;;27.05;40.78
14293;BME280;62290;59.420;17.842;2022-08-21T12:23:23;100875.06;;;27.04;40.50
14293;BME280;62290;59.420;17.842;2022-08-21T12:26:11;100879.31;;;27.07;40.32
14293;BME280;62290;59.420;17.842;2022-08-21T12:28:41;100868.66;;;27.05;40.35
14293;BME280;62290;59.420;17.842;2022-08-21T12:31:22;100871.94;;;27.09;39.72
14293;BME280;62290;59.420;17.842;2022-08-21T12:33:54;100865.78;;;27.07;39.44
14293;BME280;62290;59.420;17.842;2022-08-21T12:36:29;100879.31;;;27.07;39.10
14293;BME280;62290;59.420;17.842;2022-08-21T12:39:11;100878.34;;;27.08;39.26
14293;BME280;62290;59.420;17.842;2022-08-21T12:41:45;100874.63;;;27.09;39.33
14293;BME280;62290;59.420;17.842;2022-08-21T12:44:19;100871.06;;;27.08;39.05
14293;BME280;62290;59.420;17.842;2022-08-21T12:46:52;100876.31;;;27.10;38.61
14293;BME280;62290;59.420;17.842;2022-08-21T12:49:27;100872.63;;;27.11;38.67
14293;BME280;62290;59.420;17.842;2022-08-21T12:52:02;100868.19;;;27.10;38.55
14293;BME280;62290;59.420;17.842;2022-08-21T12:54:37;100865.78;;;27.07;38.32
14293;BME280;62290;59.420;17.842;2022-08-21T12:57:06;100863.66;;;27.10;38.19
14293;BME280;62290;59.420;17.842;2022-08-21T12:59:39;100861.94;;;27.09;38.24
14293;BME280;62290;59.420;17.842;2022-08-21T13:02:17;100858.25;;;27.10;37.80
14293;BME280;62290;59.420;17.842;2022-08-21T13:04:47;100861.94;;;27.09;37.98